createdAt,value
2022-12-22T00:02:44.847Z,98.79
2022-12-22T00:05:36.807Z,98.77
2022-12-22T00:08:22.606Z,98.76
2022-12-22T00:11:08.397Z,98.77
2022-12-22T00:13:54.409Z,98.73
2022-12-22T00:16:40.122Z,98.73
2022-12-22T00:19:30.683Z,98.78
2022-12-22T00:22:20.400Z,98.76
2022-12-22T00:25:05.671Z,98.81
2022-12-22T00:27:50.948Z,98.81
2022-12-22T00:30:37.013Z,98.86
2022-12-22T00:33:24.052Z,98.87
2022-12-22T00:36:09.941Z,98.90
2022-12-22T00:38:57.020Z,98.86
2022-12-22T00:41:42.446Z,98.87
2022-12-22T00:44:27.686Z,98.86
2022-12-22T00:47:13.513Z,98.86
2022-12-22T00:49:59.802Z,98.84
2022-12-22T00:52:45.143Z,98.84
2022-12-22T00:55:34.270Z,98.81
2022-12-22T00:58:20.699Z,98.85
2022-12-22T01:01:05.952Z,98.83
2022-12-22T01:03:51.422Z,98.84
2022-12-22T01:06:37.064Z,98.82
2022-12-22T01:09:23.898Z,98.82
2022-12-22T01:12:11.124Z,98.82
2022-12-22T01:14:56.465Z,98.80
2022-12-22T01:17:42.235Z,98.77
2022-12-22T01:20:28.349Z,98.77
2022-12-22T01:23:14.213Z,98.76
2022-12-22T01:26:00.026Z,98.76
2022-12-22T01:28:46.942Z,98.77
2022-12-22T01:31:37.400Z,98.76
2022-12-22T01:34:23.118Z,98.74
2022-12-22T01:37:09.003Z,98.73
2022-12-22T01:39:54.465Z,98.72
2022-12-22T01:42:40.269Z,98.73
2022-12-22T01:45:38.856Z,98.77
2022-12-22T01:48:29.460Z,98.73
2022-12-22T01:51:15.539Z,98.76
2022-12-22T01:54:01.482Z,98.74
2022-12-22T01:56:47.476Z,98.73
2022-12-22T01:59:32.874Z,98.73
2022-12-22T02:02:20.689Z,98.68
2022-12-22T02:05:06.677Z,98.73
2022-12-22T02:08:03.736Z,98.69
2022-12-22T02:11:10.924Z,98.71
2022-12-22T02:14:04.332Z,98.67
2022-12-22T02:16:53.288Z,98.68
2022-12-22T02:20:01.183Z,98.68
2022-12-22T02:22:50.712Z,98.68
2022-12-22T02:25:41.520Z,98.69
2022-12-22T02:28:30.406Z,98.71
2022-12-22T02:31:17.085Z,98.68
2022-12-22T02:34:03.088Z,98.66
2022-12-22T02:36:54.157Z,98.57
2022-12-22T02:39:46.185Z,98.47
2022-12-22T02:42:36.764Z,98.40
2022-12-22T02:45:28.921Z,98.41
2022-12-22T02:48:21.305Z,98.34
2022-12-22T02:51:12.242Z,98.43
2022-12-22T02:53:58.779Z,98.50
2022-12-22T02:56:44.558Z,98.51
2022-12-22T02:59:30.343Z,98.57
2022-12-22T03:02:17.336Z,98.64
2022-12-22T03:05:02.757Z,98.68
2022-12-22T03:07:48.333Z,98.74
2022-12-22T03:10:34.302Z,98.74
2022-12-22T03:13:19.832Z,98.77
2022-12-22T03:16:05.139Z,98.77
2022-12-22T03:18:52.392Z,98.73
2022-12-22T03:21:38.381Z,98.73
2022-12-22T03:24:24.556Z,98.72
2022-12-22T03:26:52.742Z,98.72
2022-12-22T03:29:20.720Z,98.72
2022-12-22T03:31:49.188Z,98.68
2022-12-22T03:34:18.462Z,98.71
2022-12-22T03:36:46.440Z,98.73
2022-12-22T03:39:14.482Z,98.69
2022-12-22T03:42:00.375Z,98.71
2022-12-22T03:44:45.669Z,98.72
2022-12-22T03:47:14.320Z,98.74
2022-12-22T03:49:43.701Z,98.75
2022-12-22T03:52:11.680Z,98.76
2022-12-22T03:54:39.723Z,98.78
2022-12-22T03:57:07.742Z,98.80
2022-12-22T03:59:35.719Z,98.82
2022-12-22T04:02:03.878Z,98.83
2022-12-22T04:04:32.124Z,98.84
2022-12-22T04:07:01.563Z,98.85
2022-12-22T04:09:29.555Z,98.86
2022-12-22T04:12:15.179Z,98.83
2022-12-22T04:14:43.138Z,98.84
2022-12-22T04:17:11.141Z,98.77
2022-12-22T04:19:39.801Z,98.67
2022-12-22T04:22:09.270Z,98.63
2022-12-22T04:24:37.280Z,98.62
2022-12-22T04:27:05.342Z,98.71
2022-12-22T04:29:33.373Z,98.68
2022-12-22T04:32:01.445Z,98.82
2022-12-22T04:34:29.519Z,98.85
2022-12-22T04:37:04.416Z,98.86
2022-12-22T04:39:39.342Z,98.91
2022-12-22T04:42:07.276Z,98.94
2022-12-22T04:44:35.233Z,98.93
2022-12-22T04:47:03.308Z,98.95
2022-12-22T04:49:31.282Z,98.98
2022-12-22T04:51:59.476Z,99.01
2022-12-22T04:54:27.412Z,99.02
2022-12-22T04:56:56.794Z,99.07
2022-12-22T04:59:24.898Z,99.09
2022-12-22T05:01:53.282Z,99.09
2022-12-22T05:04:23.865Z,99.03
2022-12-22T05:06:52.149Z,99.04
2022-12-22T05:09:20.082Z,99.06
2022-12-22T05:11:48.102Z,99.02
2022-12-22T05:14:17.412Z,99.03
2022-12-22T05:16:45.475Z,99.03
2022-12-22T05:19:13.480Z,99.00
2022-12-22T05:21:41.531Z,99.00
2022-12-22T05:24:09.624Z,98.97
2022-12-22T05:26:37.617Z,98.93
2022-12-22T05:29:05.574Z,98.93
2022-12-22T05:31:37.747Z,98.92
2022-12-22T05:34:08.688Z,98.92
2022-12-22T05:36:36.990Z,98.92
2022-12-22T05:39:05.051Z,98.88
2022-12-22T05:41:33.017Z,98.87
2022-12-22T05:44:01.013Z,98.89
2022-12-22T05:46:29.113Z,98.91
2022-12-22T05:48:58.468Z,98.90
2022-12-22T05:51:26.455Z,98.89
2022-12-22T05:53:54.445Z,98.86
2022-12-22T05:56:22.388Z,98.88
2022-12-22T05:58:50.368Z,98.88
2022-12-22T06:01:18.330Z,98.86
2022-12-22T06:03:46.430Z,98.86
2022-12-22T06:06:16.083Z,98.87
2022-12-22T06:08:44.134Z,98.83
2022-12-22T06:11:12.099Z,98.85
2022-12-22T06:13:40.091Z,98.84
2022-12-22T06:16:08.670Z,98.85
2022-12-22T06:18:36.785Z,98.83
2022-12-22T06:21:04.917Z,98.84
2022-12-22T06:23:34.287Z,98.81
2022-12-22T06:26:05.391Z,98.84
2022-12-22T06:28:33.391Z,98.78
2022-12-22T06:31:01.528Z,98.80
2022-12-22T06:33:29.507Z,98.82
2022-12-22T06:35:59.364Z,98.83
2022-12-22T06:38:28.320Z,98.78
2022-12-22T06:40:57.966Z,98.74
2022-12-22T06:43:25.179Z,98.74
2022-12-22T06:46:13.219Z,98.74
2022-12-22T06:48:41.439Z,98.74
2022-12-22T06:51:09.451Z,98.69
2022-12-22T06:53:41.150Z,98.72
2022-12-22T06:56:10.598Z,98.66
2022-12-22T06:58:38.708Z,98.68
2022-12-22T07:01:06.912Z,98.66
2022-12-22T07:03:35.061Z,98.66
2022-12-22T07:06:03.080Z,98.64
2022-12-22T07:08:31.162Z,98.60
2022-12-22T07:10:59.153Z,99.32
2022-12-22T07:13:29.974Z,99.29
2022-12-22T07:16:01.088Z,99.07
2022-12-22T07:18:30.676Z,98.92
2022-12-22T07:20:58.853Z,98.85
2022-12-22T07:23:27.294Z,98.79
2022-12-22T07:25:55.534Z,98.47
2022-12-22T07:28:23.678Z,98.52
2022-12-22T07:30:54.144Z,98.45
2022-12-22T07:33:22.337Z,98.07
2022-12-22T07:35:50.392Z,97.91
2022-12-22T07:38:18.376Z,97.98
2022-12-22T07:40:51.674Z,97.66
2022-12-22T07:43:19.196Z,97.57
2022-12-22T07:45:47.344Z,97.59
2022-12-22T07:48:30.936Z,96.80
2022-12-22T07:51:02.667Z,96.53
2022-12-22T07:53:30.689Z,96.58
2022-12-22T07:56:02.938Z,96.68
2022-12-22T07:58:31.231Z,96.79
2022-12-22T08:01:00.347Z,96.89
2022-12-22T08:03:29.723Z,96.99
2022-12-22T08:05:57.837Z,97.10
2022-12-22T08:08:25.858Z,97.24
2022-12-22T08:10:53.864Z,97.33
2022-12-22T08:13:22.269Z,97.46
2022-12-22T08:15:50.326Z,97.57
2022-12-22T08:18:18.316Z,97.61
2022-12-22T08:20:51.833Z,97.69
2022-12-22T08:23:20.239Z,97.78
2022-12-22T08:25:50.064Z,97.82
2022-12-22T08:28:18.315Z,97.90
2022-12-22T08:30:46.598Z,97.91
2022-12-22T08:33:14.742Z,97.93
2022-12-22T08:35:43.348Z,97.97
2022-12-22T08:38:14.108Z,98.01
2022-12-22T08:40:43.943Z,98.03
2022-12-22T08:43:12.753Z,98.04
2022-12-22T08:45:41.930Z,98.06
2022-12-22T08:48:10.600Z,98.11
2022-12-22T08:50:38.846Z,98.11
2022-12-22T08:53:18.843Z,98.12
2022-12-22T08:55:57.666Z,98.13
2022-12-22T08:58:25.751Z,98.13
2022-12-22T09:00:53.805Z,98.13
2022-12-22T09:03:21.887Z,98.17
2022-12-22T09:05:49.947Z,98.13
2022-12-22T09:08:17.900Z,98.14
2022-12-22T09:10:46.356Z,98.17
2022-12-22T09:13:15.646Z,98.17
2022-12-22T09:15:43.730Z,98.20
2022-12-22T09:18:11.682Z,98.22
2022-12-22T09:20:39.670Z,98.22
2022-12-22T09:23:07.664Z,98.23
2022-12-22T09:25:36.030Z,98.23
2022-12-22T09:28:05.490Z,98.27
2022-12-22T09:30:34.828Z,98.28
2022-12-22T09:33:02.917Z,98.25
2022-12-22T09:35:30.979Z,98.23
2022-12-22T09:37:59.754Z,98.27
2022-12-22T09:40:28.145Z,98.27
2022-12-22T09:42:56.304Z,98.26
2022-12-22T09:45:24.526Z,98.25
2022-12-22T09:47:55.015Z,98.27
2022-12-22T09:50:25.237Z,98.30
2022-12-22T09:52:55.272Z,98.33
2022-12-22T09:55:33.875Z,98.31
2022-12-22T09:58:01.960Z,98.32
2022-12-22T10:00:30.285Z,98.30
2022-12-22T10:03:05.709Z,98.31
2022-12-22T10:05:39.289Z,98.29
2022-12-22T10:08:12.034Z,98.30
2022-12-22T10:10:40.447Z,98.34
2022-12-22T10:13:12.869Z,98.35
2022-12-22T10:15:41.818Z,98.34
2022-12-22T10:18:13.622Z,98.32
2022-12-22T10:20:42.483Z,98.33
2022-12-22T10:23:18.892Z,98.36
2022-12-22T10:26:27.937Z,98.37
2022-12-22T10:28:52.222Z,98.41
2022-12-22T10:31:22.214Z,98.39
2022-12-22T10:33:53.877Z,98.42
2022-12-22T10:36:24.685Z,98.44
2022-12-22T10:38:58.724Z,98.43
2022-12-22T10:41:28.844Z,98.44
2022-12-22T10:43:59.057Z,98.39
2022-12-22T10:46:36.928Z,98.42
2022-12-22T10:49:21.521Z,98.36
2022-12-22T10:51:52.200Z,98.41
2022-12-22T10:54:33.950Z,98.44
2022-12-22T10:57:05.785Z,98.40
2022-12-22T10:59:34.806Z,98.39
2022-12-22T11:02:24.901Z,98.45
2022-12-22T11:04:55.360Z,98.51
2022-12-22T11:07:24.850Z,98.44
2022-12-22T11:09:52.975Z,98.43
2022-12-22T11:12:27.274Z,98.39
2022-12-22T11:15:01.591Z,98.42
2022-12-22T11:17:34.922Z,98.37
2022-12-22T11:20:27.962Z,98.34
2022-12-22T11:23:01.665Z,98.39
2022-12-22T11:25:37.142Z,98.41
2022-12-22T11:28:23.922Z,98.42
2022-12-22T11:31:00.574Z,98.34
2022-12-22T11:33:36.934Z,98.38
2022-12-22T11:36:09.764Z,98.39
2022-12-22T11:38:46.762Z,98.37
2022-12-22T11:41:26.064Z,98.37
2022-12-22T11:44:03.201Z,98.37
2022-12-22T11:46:35.911Z,98.36
2022-12-22T11:49:17.230Z,98.42
2022-12-22T11:52:06.255Z,98.41
2022-12-22T11:54:50.123Z,98.37
2022-12-22T11:57:27.711Z,98.41
2022-12-22T12:00:02.720Z,98.41
2022-12-22T12:03:14.113Z,98.45
2022-12-22T12:05:50.766Z,98.45
2022-12-22T12:08:29.475Z,98.45
2022-12-22T12:11:06.525Z,98.45
2022-12-22T12:13:41.112Z,98.50
2022-12-22T12:16:18.508Z,98.48
2022-12-22T12:19:04.712Z,98.48
2022-12-22T12:21:38.582Z,98.45
2022-12-22T12:24:26.127Z,98.51
2022-12-22T12:27:00.601Z,98.50
2022-12-22T12:29:29.700Z,98.50
2022-12-22T12:32:02.236Z,98.50
2022-12-22T12:34:33.311Z,98.56
2022-12-22T12:37:04.626Z,98.54
2022-12-22T12:39:39.052Z,98.59
2022-12-22T12:42:18.070Z,98.64
2022-12-22T12:44:47.195Z,98.63
2022-12-22T12:47:27.023Z,98.63
2022-12-22T12:50:03.369Z,98.62
2022-12-22T12:53:16.449Z,98.65
2022-12-22T12:56:02.996Z,98.69
2022-12-22T12:58:58.410Z,98.69
2022-12-22T13:01:57.494Z,98.64
2022-12-22T13:05:14.030Z,98.70
2022-12-22T13:08:11.286Z,98.69
2022-12-22T13:11:52.655Z,98.71
2022-12-22T13:14:51.997Z,98.72
2022-12-22T13:17:42.188Z,98.79
2022-12-22T13:20:14.375Z,98.78
2022-12-22T13:22:43.909Z,98.79
2022-12-22T13:25:14.751Z,98.77
2022-12-22T13:27:42.757Z,98.77
2022-12-22T13:30:16.797Z,98.80
2022-12-22T13:32:46.117Z,98.80
2022-12-22T13:35:30.845Z,98.80
2022-12-22T13:38:00.013Z,98.79
2022-12-22T13:40:30.671Z,98.77
2022-12-22T13:43:02.528Z,98.77
2022-12-22T13:45:34.715Z,98.75
2022-12-22T13:48:07.816Z,98.75
2022-12-22T13:50:38.561Z,98.78
2022-12-22T13:53:08.746Z,98.79
2022-12-22T13:55:37.268Z,98.84
2022-12-22T13:58:08.226Z,98.84
2022-12-22T14:00:37.595Z,98.86
2022-12-22T14:03:34.140Z,98.85
2022-12-22T14:06:02.741Z,98.88
2022-12-22T14:08:30.834Z,98.87
2022-12-22T14:10:58.838Z,98.85
2022-12-22T14:13:31.292Z,98.75
2022-12-22T14:16:05.623Z,98.72
2022-12-22T14:18:33.937Z,98.82
2022-12-22T14:21:02.378Z,98.81
2022-12-22T14:23:32.643Z,98.73
2022-12-22T14:26:01.847Z,98.72
2022-12-22T14:28:33.403Z,98.62
2022-12-22T14:31:04.001Z,98.56
2022-12-22T14:33:33.735Z,98.54
2022-12-22T14:36:16.330Z,98.52
2022-12-22T14:38:45.133Z,98.51
2022-12-22T14:41:38.273Z,98.51
2022-12-22T14:44:06.537Z,98.52
2022-12-22T14:46:39.161Z,98.50
2022-12-22T14:49:14.266Z,98.56
2022-12-22T14:51:42.459Z,98.56
2022-12-22T14:54:19.975Z,98.58
2022-12-22T14:56:49.429Z,98.54
2022-12-22T14:59:26.260Z,98.59
2022-12-22T15:02:00.654Z,98.60
2022-12-22T15:04:29.319Z,98.58
2022-12-22T15:07:06.964Z,98.61
2022-12-22T15:10:13.762Z,98.60
2022-12-22T15:12:22.798Z,98.61
2022-12-22T15:14:50.815Z,98.65
2022-12-22T15:17:24.033Z,98.64
2022-12-22T15:19:51.945Z,98.65
2022-12-22T15:22:20.865Z,98.64
2022-12-22T15:24:49.043Z,98.66
2022-12-22T15:27:17.022Z,98.66
2022-12-22T15:29:44.951Z,98.68
2022-12-22T15:32:13.925Z,98.64
2022-12-22T15:34:43.482Z,98.68
2022-12-22T15:37:12.826Z,98.68
2022-12-22T15:39:41.344Z,98.68
2022-12-22T15:42:09.355Z,98.71
2022-12-22T15:44:39.175Z,98.69
2022-12-22T15:47:09.562Z,98.71
2022-12-22T15:49:37.985Z,98.66
2022-12-22T15:52:07.838Z,98.71
2022-12-22T15:54:36.647Z,98.68
2022-12-22T15:57:04.773Z,98.69
2022-12-22T15:59:32.781Z,98.70
2022-12-22T16:02:02.167Z,98.68
2022-12-22T16:04:30.537Z,98.72
2022-12-22T16:06:59.791Z,98.69
2022-12-22T16:09:32.604Z,98.68
2022-12-22T16:12:00.866Z,98.65
2022-12-22T16:14:32.454Z,98.61
2022-12-22T16:17:03.308Z,98.54
2022-12-22T16:19:31.351Z,98.55
2022-12-22T16:21:59.305Z,98.52
2022-12-22T16:24:30.518Z,98.50
2022-12-22T16:26:59.096Z,98.44
2022-12-22T16:29:27.991Z,98.35
2022-12-22T16:32:17.601Z,98.22
2022-12-22T16:34:46.933Z,98.14
2022-12-22T16:37:14.879Z,98.09
2022-12-22T16:39:44.497Z,97.94
2022-12-22T16:45:01.683Z,97.89
2022-12-22T16:47:33.711Z,97.85
2022-12-22T16:50:02.596Z,97.78
2022-12-22T16:52:37.099Z,97.73
2022-12-22T16:55:14.699Z,97.80
2022-12-22T16:57:42.707Z,97.77
2022-12-22T17:00:17.697Z,97.76
2022-12-22T17:02:48.506Z,97.82
2022-12-22T17:05:25.202Z,97.86
2022-12-22T17:07:53.486Z,97.79
2022-12-22T17:10:23.513Z,97.91
2022-12-22T17:12:54.178Z,97.91
2022-12-22T17:15:23.955Z,97.85
2022-12-22T17:17:52.709Z,97.86
2022-12-22T17:20:22.876Z,97.94
2022-12-22T17:22:53.510Z,97.98
2022-12-22T17:25:26.090Z,97.98
2022-12-22T17:27:54.781Z,98.10
2022-12-22T17:30:24.938Z,98.14
2022-12-22T17:32:53.622Z,98.28
2022-12-22T17:35:24.824Z,98.42
2022-12-22T17:37:53.407Z,98.44
2022-12-22T17:40:26.539Z,98.61
2022-12-22T17:42:54.720Z,98.73
2022-12-22T17:45:23.080Z,98.79
2022-12-22T17:47:51.339Z,98.90
2022-12-22T17:50:20.944Z,98.93
2022-12-22T17:52:49.165Z,98.99
2022-12-22T17:55:49.914Z,98.98
2022-12-22T17:58:14.799Z,98.94
2022-12-22T18:00:43.117Z,98.86
2022-12-22T18:03:13.182Z,98.80
2022-12-22T18:05:43.367Z,98.81
2022-12-22T18:08:14.268Z,98.77
2022-12-22T18:10:42.826Z,98.66
2022-12-22T18:13:16.527Z,98.58
2022-12-22T18:15:44.717Z,98.60
2022-12-22T18:18:14.799Z,98.53
2022-12-22T18:20:43.225Z,98.44
2022-12-22T18:23:16.292Z,98.48
2022-12-22T18:25:44.526Z,98.46
2022-12-22T18:28:15.629Z,98.44
2022-12-22T18:30:44.279Z,98.35
2022-12-22T18:33:12.654Z,98.38
2022-12-22T18:35:40.998Z,98.44
2022-12-22T18:38:17.900Z,98.47
2022-12-22T18:40:46.037Z,98.46
2022-12-22T18:43:15.724Z,98.45
2022-12-22T18:45:43.782Z,98.43
2022-12-22T18:48:11.839Z,98.45
2022-12-22T18:50:40.870Z,98.47
2022-12-22T18:53:18.335Z,98.51
2022-12-22T18:55:46.604Z,98.54
2022-12-22T18:58:16.117Z,98.51
2022-12-22T19:00:44.596Z,98.46
2022-12-22T19:03:17.836Z,98.48
2022-12-22T19:05:47.614Z,98.47
2022-12-22T19:08:17.239Z,98.42
2022-12-22T19:10:49.192Z,98.41
2022-12-22T19:13:22.696Z,98.43
2022-12-22T19:15:52.527Z,98.42
2022-12-22T19:18:26.463Z,98.41
2022-12-22T19:20:55.690Z,98.54
2022-12-22T19:23:25.385Z,98.57
2022-12-22T19:25:55.810Z,98.59
2022-12-22T19:28:31.037Z,98.59
2022-12-22T19:30:59.485Z,98.57
2022-12-22T19:33:30.352Z,98.58
2022-12-22T19:35:59.059Z,98.65
2022-12-22T19:38:28.089Z,98.73
2022-12-22T19:41:00.135Z,98.67
2022-12-22T19:43:29.725Z,98.68
2022-12-22T19:45:58.188Z,98.71
2022-12-22T19:48:27.718Z,98.70
2022-12-22T19:50:56.132Z,98.84
2022-12-22T19:53:24.162Z,98.90
2022-12-22T19:55:54.070Z,98.88
2022-12-22T19:58:24.200Z,98.87
2022-12-22T20:00:54.603Z,98.89
2022-12-22T20:03:24.835Z,98.85
2022-12-22T20:05:53.011Z,98.82
2022-12-22T20:08:21.040Z,98.80
2022-12-22T20:10:54.475Z,98.78
2022-12-22T20:13:30.054Z,98.78
2022-12-22T20:15:59.573Z,98.90
2022-12-22T20:18:30.204Z,98.94
2022-12-22T20:21:02.423Z,99.01
2022-12-22T20:23:33.049Z,99.03
2022-12-22T20:26:04.077Z,99.11
2022-12-22T20:28:34.758Z,99.16
2022-12-22T20:31:05.404Z,99.10
2022-12-22T20:33:34.820Z,99.17
2022-12-22T20:36:03.623Z,99.20
2022-12-22T20:38:34.768Z,99.22
2022-12-22T20:41:03.563Z,99.21
2022-12-22T20:43:32.960Z,99.21
2022-12-22T20:46:04.879Z,99.17
2022-12-22T20:48:34.757Z,99.14
2022-12-22T20:51:04.729Z,99.19
2022-12-22T20:53:33.089Z,99.19
2022-12-22T20:56:01.813Z,99.21
2022-12-22T20:58:34.058Z,99.18
2022-12-22T21:01:02.165Z,99.16
2022-12-22T21:03:31.565Z,99.11
2022-12-22T21:05:59.613Z,99.06
2022-12-22T21:08:27.787Z,99.08
2022-12-22T21:10:56.256Z,99.13
2022-12-22T21:13:24.267Z,99.14
2022-12-22T21:15:52.711Z,99.12
2022-12-22T21:18:22.780Z,99.09
2022-12-22T21:20:52.976Z,99.11
2022-12-22T21:23:21.136Z,99.09
2022-12-22T21:25:51.371Z,99.12
2022-12-22T21:28:24.730Z,99.12
2022-12-22T21:30:52.874Z,99.13
2022-12-22T21:33:20.878Z,99.12
2022-12-22T21:35:48.971Z,99.12
2022-12-22T21:38:20.235Z,99.07
2022-12-22T21:40:49.564Z,99.08
2022-12-22T21:43:18.038Z,99.01
2022-12-22T21:45:46.788Z,99.07
2022-12-22T21:48:18.654Z,99.04
2022-12-22T21:50:47.354Z,99.04
2022-12-22T21:53:21.514Z,99.04
2022-12-22T21:55:51.527Z,99.05
2022-12-22T21:58:19.524Z,99.04
2022-12-22T22:00:49.259Z,99.10
2022-12-22T22:03:17.528Z,99.07
2022-12-22T22:05:45.504Z,99.06
2022-12-22T22:08:13.939Z,99.05
2022-12-22T22:10:44.149Z,99.04
2022-12-22T22:13:15.986Z,99.07
2022-12-22T22:15:44.337Z,99.01
2022-12-22T22:18:16.580Z,98.96
2022-12-22T22:20:44.892Z,98.95
2022-12-22T22:23:14.519Z,98.94
2022-12-22T22:25:42.531Z,98.90
2022-12-22T22:28:11.452Z,98.93
2022-12-22T22:30:42.912Z,98.92
2022-12-22T22:33:11.509Z,98.89
2022-12-22T22:35:42.379Z,98.83
2022-12-22T22:38:11.996Z,98.80
2022-12-22T22:40:40.110Z,98.80
2022-12-22T22:43:08.138Z,98.79
2022-12-22T22:45:38.370Z,98.79
2022-12-22T22:48:11.051Z,98.78
2022-12-22T22:50:41.514Z,98.81
2022-12-22T22:53:09.654Z,98.75
2022-12-22T22:55:37.613Z,98.81
2022-12-22T22:58:05.763Z,98.80
2022-12-22T23:00:33.985Z,98.78
2022-12-22T23:03:02.049Z,98.77
2022-12-22T23:05:31.792Z,98.78
2022-12-22T23:07:59.895Z,98.77
2022-12-22T23:10:27.875Z,98.74
2022-12-22T23:12:55.903Z,98.70
2022-12-22T23:15:23.883Z,98.66
2022-12-22T23:17:52.100Z,98.63
2022-12-22T23:20:20.249Z,98.61
2022-12-22T23:22:49.557Z,98.60
2022-12-22T23:25:17.699Z,98.59
2022-12-22T23:27:45.709Z,98.59
2022-12-22T23:30:14.610Z,98.53
2022-12-22T23:32:42.689Z,98.52
2022-12-22T23:35:11.321Z,98.53
2022-12-22T23:37:39.319Z,98.47
2022-12-22T23:40:42.017Z,98.42
2022-12-22T23:42:58.300Z,98.39
2022-12-22T23:45:28.604Z,98.37
2022-12-22T23:47:56.742Z,98.37
2022-12-22T23:50:25.502Z,98.39
2022-12-22T23:52:53.833Z,98.36
2022-12-22T23:55:23.777Z,98.35
2022-12-22T23:57:53.161Z,98.36
